createdAt,value
2022-08-21T00:02:20.501Z,55.70
2022-08-21T00:04:54.595Z,55.80
2022-08-21T00:07:24.212Z,55.80
2022-08-21T00:09:52.940Z,55.90
2022-08-21T00:12:20.368Z,56.00
2022-08-21T00:14:48.454Z,55.90
2022-08-21T00:17:15.493Z,56.10
2022-08-21T00:19:42.394Z,56.00
2022-08-21T00:22:09.732Z,56.60
2022-08-21T00:24:37.183Z,56.00
2022-08-21T00:27:04.185Z,55.90
2022-08-21T00:29:31.578Z,56.00
2022-08-21T00:31:59.687Z,56.10
2022-08-21T00:34:27.404Z,56.00
2022-08-21T00:36:54.256Z,56.00
2022-08-21T00:39:21.274Z,56.70
2022-08-21T00:41:48.205Z,56.00
2022-08-21T00:44:16.501Z,56.00
2022-08-21T00:46:44.296Z,56.00
2022-08-21T00:49:12.919Z,56.20
2022-08-21T00:51:59.277Z,56.20
2022-08-21T00:54:28.100Z,56.10
2022-08-21T00:56:59.698Z,56.10
2022-08-21T00:59:30.398Z,56.20
2022-08-21T01:01:57.425Z,56.00
2022-08-21T01:04:24.671Z,56.20
2022-08-21T01:06:52.510Z,56.20
2022-08-21T01:09:20.473Z,56.00
2022-08-21T01:11:47.931Z,56.20
2022-08-21T01:14:15.580Z,56.30
2022-08-21T01:16:45.754Z,56.90
2022-08-21T01:19:15.132Z,56.20
2022-08-21T01:21:42.196Z,56.30
2022-08-21T01:24:12.279Z,56.30
2022-08-21T01:26:40.192Z,56.40
2022-08-21T01:29:34.615Z,56.40
2022-08-21T01:32:07.007Z,55.90
2022-08-21T01:34:37.231Z,56.40
2022-08-21T01:37:04.399Z,56.40
2022-08-21T01:39:31.539Z,56.50
2022-08-21T01:41:58.443Z,56.50
2022-08-21T01:44:26.077Z,56.50
2022-08-21T01:46:54.271Z,56.50
2022-08-21T01:49:21.252Z,56.50
2022-08-21T01:51:48.416Z,56.50
2022-08-21T01:54:15.480Z,56.60
2022-08-21T01:56:46.553Z,56.60
2022-08-21T01:59:14.163Z,56.60
2022-08-21T02:01:41.048Z,56.50
2022-08-21T02:04:10.021Z,56.60
2022-08-21T02:06:37.603Z,56.70
2022-08-21T02:09:05.887Z,56.60
2022-08-21T02:11:33.924Z,56.70
2022-08-21T02:14:01.070Z,56.70
2022-08-21T02:16:28.027Z,56.60
2022-08-21T02:19:00.372Z,56.60
2022-08-21T02:21:27.409Z,56.50
2022-08-21T02:23:54.369Z,56.60
2022-08-21T02:26:21.293Z,56.70
2022-08-21T02:28:49.015Z,56.60
2022-08-21T02:31:16.224Z,56.60
2022-08-21T02:33:43.156Z,56.50
2022-08-21T02:36:11.155Z,57.10
2022-08-21T02:38:40.671Z,56.60
2022-08-21T02:41:10.885Z,56.60
2022-08-21T02:43:37.832Z,56.60
2022-08-21T02:46:06.364Z,56.50
2022-08-21T02:48:34.735Z,56.50
2022-08-21T02:51:23.867Z,57.30
2022-08-21T02:53:51.541Z,56.70
2022-08-21T02:56:21.651Z,56.60
2022-08-21T02:58:52.445Z,56.80
2022-08-21T03:01:21.469Z,56.70
2022-08-21T03:03:52.090Z,56.60
2022-08-21T03:06:21.203Z,56.80
2022-08-21T03:08:49.092Z,56.70
2022-08-21T03:11:16.306Z,56.60
2022-08-21T03:13:43.481Z,56.70
2022-08-21T03:16:10.697Z,56.60
2022-08-21T03:18:38.221Z,56.60
2022-08-21T03:21:07.333Z,56.80
2022-08-21T03:23:34.313Z,56.80
2022-08-21T03:26:01.648Z,56.60
2022-08-21T03:28:29.031Z,56.70
2022-08-21T03:30:56.327Z,57.20
2022-08-21T03:33:23.689Z,56.60
2022-08-21T03:36:01.478Z,56.70
2022-08-21T03:38:30.649Z,56.40
2022-08-21T03:40:57.764Z,57.30
2022-08-21T03:43:24.668Z,56.80
2022-08-21T03:45:52.626Z,56.80
2022-08-21T03:48:20.010Z,56.70
2022-08-21T03:50:48.248Z,56.70
2022-08-21T03:53:17.539Z,56.70
2022-08-21T03:55:50.121Z,56.90
2022-08-21T03:58:18.836Z,56.70
2022-08-21T04:00:47.339Z,56.80
2022-08-21T04:03:14.277Z,56.80
2022-08-21T04:05:41.910Z,56.80
2022-08-21T04:08:08.912Z,56.90
2022-08-21T04:10:38.516Z,57.00
2022-08-21T04:13:06.775Z,56.70
2022-08-21T04:15:34.304Z,56.90
2022-08-21T04:18:01.492Z,56.90
2022-08-21T04:20:28.447Z,56.80
2022-08-21T04:22:56.132Z,57.00
2022-08-21T04:25:26.508Z,57.10
2022-08-21T04:27:53.638Z,56.90
2022-08-21T04:30:20.755Z,56.90
2022-08-21T04:32:50.408Z,56.80
2022-08-21T04:35:20.394Z,57.00
2022-08-21T04:37:47.947Z,57.00
2022-08-21T04:40:19.140Z,57.00
2022-08-21T04:42:55.724Z,57.10
2022-08-21T04:45:28.827Z,56.60
2022-08-21T04:47:58.748Z,56.70
2022-08-21T04:50:55.628Z,57.10
2022-08-21T04:53:28.891Z,56.50
2022-08-21T04:55:57.433Z,57.00
2022-08-21T04:58:27.177Z,57.00
2022-08-21T05:00:56.950Z,57.10
2022-08-21T05:03:24.310Z,57.00
2022-08-21T05:05:51.403Z,57.20
2022-08-21T05:08:22.462Z,57.10
2022-08-21T05:10:49.455Z,56.90
2022-08-21T05:13:16.970Z,56.90
2022-08-21T05:15:43.915Z,56.90
2022-08-21T05:18:11.124Z,56.80
2022-08-21T05:20:38.527Z,56.80
2022-08-21T05:23:10.737Z,57.00
2022-08-21T05:25:38.293Z,56.80
2022-08-21T05:28:06.781Z,56.90
2022-08-21T05:30:34.796Z,56.90
2022-08-21T05:33:03.923Z,57.00
2022-08-21T05:35:32.323Z,57.00
2022-08-21T05:37:59.941Z,57.00
2022-08-21T05:40:27.437Z,57.00
2022-08-21T05:42:55.826Z,56.90
2022-08-21T05:45:42.159Z,57.00
2022-08-21T05:48:16.100Z,57.00
2022-08-21T05:50:45.259Z,56.90
2022-08-21T05:53:12.508Z,57.00
2022-08-21T05:55:45.161Z,57.10
2022-08-21T05:58:21.249Z,57.00
2022-08-21T06:00:50.064Z,57.10
2022-08-21T06:03:26.313Z,57.10
2022-08-21T06:05:53.853Z,57.00
2022-08-21T06:08:21.496Z,57.50
2022-08-21T06:10:49.975Z,57.50
2022-08-21T06:13:19.189Z,57.50
2022-08-21T06:15:46.935Z,57.50
2022-08-21T06:18:13.867Z,57.50
2022-08-21T06:20:41.722Z,57.40
2022-08-21T06:23:09.231Z,57.20
2022-08-21T06:25:36.704Z,57.30
2022-08-21T06:28:06.664Z,57.20
2022-08-21T06:30:34.286Z,57.40
2022-08-21T06:33:01.568Z,57.30
2022-08-21T06:35:30.132Z,57.30
2022-08-21T06:37:58.314Z,57.00
2022-08-21T06:40:27.080Z,57.00
2022-08-21T06:42:54.324Z,57.00
2022-08-21T06:45:22.118Z,56.90
2022-08-21T06:47:49.249Z,57.80
2022-08-21T06:50:16.117Z,57.70
2022-08-21T06:52:43.353Z,58.20
2022-08-21T06:55:11.319Z,57.30
2022-08-21T06:57:40.068Z,57.00
2022-08-21T07:00:09.002Z,57.30
2022-08-21T07:02:35.996Z,55.80
2022-08-21T07:05:18.222Z,55.80
2022-08-21T07:07:46.717Z,55.80
2022-08-21T07:10:21.853Z,55.80
2022-08-21T07:12:50.787Z,56.10
2022-08-21T07:15:26.005Z,56.20
2022-08-21T07:17:52.919Z,57.00
2022-08-21T07:20:20.229Z,56.10
2022-08-21T07:22:47.198Z,56.50
2022-08-21T07:25:14.251Z,56.20
2022-08-21T07:27:41.154Z,56.40
2022-08-21T07:30:08.481Z,56.70
2022-08-21T07:32:35.410Z,56.50
2022-08-21T07:35:02.336Z,56.60
2022-08-21T07:37:29.504Z,56.50
2022-08-21T07:39:57.413Z,57.10
2022-08-21T07:42:24.347Z,56.70
2022-08-21T07:44:53.100Z,56.90
2022-08-21T07:47:41.463Z,56.50
2022-08-21T07:50:13.360Z,57.00
2022-08-21T07:52:41.254Z,56.90
2022-08-21T07:55:10.440Z,56.90
2022-08-21T07:57:37.342Z,56.80
2022-08-21T08:00:14.579Z,57.40
2022-08-21T08:02:41.797Z,57.90
2022-08-21T08:05:12.015Z,57.40
2022-08-21T08:07:39.171Z,57.70
2022-08-21T08:10:08.058Z,57.70
2022-08-21T08:12:40.573Z,58.10
2022-08-21T08:15:10.417Z,57.60
2022-08-21T08:17:39.068Z,57.70
2022-08-21T08:20:09.982Z,57.30
2022-08-21T08:22:38.679Z,57.20
2022-08-21T08:25:09.474Z,57.30
2022-08-21T08:27:38.111Z,57.10
2022-08-21T08:30:07.576Z,57.00
2022-08-21T08:32:34.531Z,57.10
2022-08-21T08:35:01.727Z,56.90
2022-08-21T08:37:31.505Z,56.50
2022-08-21T08:40:03.598Z,56.40
2022-08-21T08:42:35.204Z,56.70
2022-08-21T08:45:16.898Z,56.60
2022-08-21T08:47:49.532Z,56.40
2022-08-21T08:50:34.506Z,56.10
2022-08-21T08:53:06.077Z,55.70
2022-08-21T08:55:42.403Z,55.50
2022-08-21T08:58:21.630Z,55.30
2022-08-21T09:00:50.974Z,55.30
2022-08-21T09:03:18.155Z,55.40
2022-08-21T09:05:49.359Z,55.40
2022-08-21T09:08:50.616Z,55.30
2022-08-21T09:11:33.261Z,55.10
2022-08-21T09:14:12.775Z,55.40
2022-08-21T09:16:56.720Z,55.20
2022-08-21T09:19:47.353Z,55.20
2022-08-21T09:22:20.441Z,55.30
2022-08-21T09:25:23.371Z,55.70
2022-08-21T09:27:51.709Z,55.70
2022-08-21T09:30:24.597Z,56.10
2022-08-21T09:32:51.559Z,56.20
2022-08-21T09:35:21.763Z,56.30
2022-08-21T09:38:07.381Z,56.30
2022-08-21T09:40:37.251Z,55.50
2022-08-21T09:43:08.362Z,55.80
2022-08-21T09:45:37.347Z,56.40
2022-08-21T09:48:19.853Z,56.40
2022-08-21T09:50:48.680Z,55.90
2022-08-21T09:53:22.769Z,55.60
2022-08-21T09:56:25.426Z,56.10
2022-08-21T09:58:52.800Z,56.00
2022-08-21T10:01:23.829Z,56.10
2022-08-21T10:04:03.799Z,56.10
2022-08-21T10:06:30.913Z,56.20
2022-08-21T10:09:21.019Z,56.20
2022-08-21T10:12:00.933Z,56.20
2022-08-21T10:14:46.975Z,56.30
2022-08-21T10:17:25.476Z,55.80
2022-08-21T10:20:06.955Z,56.30
2022-08-21T10:22:50.052Z,56.40
2022-08-21T10:25:27.254Z,56.10
2022-08-21T10:28:03.160Z,56.20
2022-08-21T10:30:58.289Z,56.10
2022-08-21T10:34:02.451Z,55.80
2022-08-21T10:36:42.691Z,55.50
2022-08-21T10:39:35.582Z,55.90
2022-08-21T10:42:31.207Z,55.90
2022-08-21T10:45:16.401Z,55.40
2022-08-21T10:47:49.992Z,55.60
2022-08-21T10:50:32.067Z,55.90
2022-08-21T10:53:07.946Z,55.40
2022-08-21T10:55:37.503Z,55.10
2022-08-21T10:58:10.812Z,55.60
2022-08-21T11:00:45.338Z,55.10
2022-08-21T11:03:18.212Z,54.80
2022-08-21T11:05:58.919Z,55.30
2022-08-21T11:08:34.679Z,55.00
2022-08-21T11:11:22.103Z,55.60
2022-08-21T11:14:02.821Z,55.40
2022-08-21T11:16:47.507Z,55.40
2022-08-21T11:19:20.210Z,55.00
2022-08-21T11:21:55.159Z,55.30
2022-08-21T11:24:32.252Z,55.50
2022-08-21T11:27:11.913Z,55.70
2022-08-21T11:29:45.200Z,55.80
2022-08-21T11:32:33.780Z,55.40
2022-08-21T11:35:28.822Z,55.90
2022-08-21T11:37:59.213Z,55.90
2022-08-21T11:40:37.396Z,56.30
2022-08-21T11:43:17.274Z,56.10
2022-08-21T11:45:49.025Z,55.90
2022-08-21T11:48:39.936Z,55.80
2022-08-21T11:51:11.783Z,56.40
2022-08-21T11:53:54.232Z,55.50
2022-08-21T11:56:36.993Z,55.30
2022-08-21T11:59:10.728Z,55.00
2022-08-21T12:01:46.756Z,54.70
2022-08-21T12:04:30.345Z,55.50
2022-08-21T12:06:58.130Z,55.10
2022-08-21T12:09:24.909Z,55.00
2022-08-21T12:12:22.876Z,54.90
2022-08-21T12:14:52.320Z,54.60
2022-08-21T12:17:27.672Z,55.10
2022-08-21T12:20:16.307Z,54.50
2022-08-21T12:22:52.862Z,54.50
2022-08-21T12:25:22.061Z,55.00
2022-08-21T12:28:03.027Z,55.20
2022-08-21T12:30:37.801Z,53.20
2022-08-21T12:33:36.235Z,53.70
2022-08-21T12:36:12.842Z,53.80
2022-08-21T12:38:58.781Z,54.30
2022-08-21T12:41:39.098Z,54.70
2022-08-21T12:44:11.218Z,55.00
2022-08-21T12:46:47.256Z,54.00
2022-08-21T12:49:28.994Z,53.80
2022-08-21T12:51:58.852Z,53.70
2022-08-21T12:54:38.706Z,53.80
2022-08-21T12:57:07.653Z,54.20
2022-08-21T12:59:40.140Z,54.30
2022-08-21T13:02:19.495Z,54.00
2022-08-21T13:04:48.926Z,54.20
2022-08-21T13:07:25.625Z,54.20
2022-08-21T13:09:57.181Z,54.00
2022-08-21T13:12:28.351Z,54.40
2022-08-21T13:15:02.510Z,54.20
2022-08-21T13:17:35.361Z,53.90
2022-08-21T13:20:26.081Z,53.90
2022-08-21T13:22:54.725Z,53.90
2022-08-21T13:25:28.097Z,54.60
2022-08-21T13:28:06.771Z,55.20
2022-08-21T13:30:34.576Z,55.20
2022-08-21T13:33:09.734Z,55.00
2022-08-21T13:35:58.045Z,55.10
2022-08-21T13:38:36.682Z,54.90
2022-08-21T13:41:10.655Z,55.50
2022-08-21T13:43:38.735Z,55.50
2022-08-21T13:46:16.789Z,55.40
2022-08-21T13:48:44.215Z,55.20
2022-08-21T13:51:11.551Z,55.10
2022-08-21T13:53:53.204Z,55.00
2022-08-21T13:56:41.869Z,55.10
2022-08-21T13:59:08.791Z,55.40
2022-08-21T14:02:14.147Z,55.00
2022-08-21T14:05:02.656Z,54.30
2022-08-21T14:07:40.105Z,54.70
2022-08-21T14:10:19.078Z,55.60
2022-08-21T14:12:53.433Z,55.30
2022-08-21T14:15:25.366Z,55.80
2022-08-21T14:17:53.248Z,54.90
2022-08-21T14:20:34.145Z,54.20
2022-08-21T14:23:03.183Z,53.80
2022-08-21T14:25:50.914Z,53.90
2022-08-21T14:28:47.054Z,54.70
2022-08-21T14:31:22.089Z,55.30
2022-08-21T14:33:49.686Z,55.60
2022-08-21T14:36:17.040Z,55.60
2022-08-21T14:38:44.004Z,55.30
2022-08-21T14:41:19.853Z,55.20
2022-08-21T14:43:47.673Z,54.20
2022-08-21T14:46:29.412Z,54.70
2022-08-21T14:48:56.722Z,54.80
2022-08-21T14:51:23.632Z,54.90
2022-08-21T14:53:50.726Z,55.30
2022-08-21T14:56:18.576Z,55.80
2022-08-21T14:58:49.840Z,55.60
2022-08-21T15:01:19.426Z,55.70
2022-08-21T15:03:48.448Z,55.50
2022-08-21T15:06:17.073Z,55.10
2022-08-21T15:08:44.360Z,54.80
2022-08-21T15:11:42.194Z,54.90
2022-08-21T15:14:07.978Z,55.10
2022-08-21T15:16:36.272Z,55.60
2022-08-21T15:19:03.885Z,56.00
2022-08-21T15:21:30.771Z,55.80
2022-08-21T15:23:57.835Z,55.60
2022-08-21T15:26:24.970Z,55.80
2022-08-21T15:28:52.495Z,55.10
2022-08-21T15:31:19.481Z,55.90
2022-08-21T15:33:46.443Z,55.20
2022-08-21T15:36:13.412Z,55.50
2022-08-21T15:38:40.274Z,55.70
2022-08-21T15:41:07.637Z,55.80
2022-08-21T15:43:47.379Z,56.10
2022-08-21T15:46:16.678Z,56.40
2022-08-21T15:48:43.993Z,56.20
2022-08-21T15:51:12.029Z,56.40
2022-08-21T15:53:40.969Z,56.30
2022-08-21T15:56:23.269Z,56.30
2022-08-21T15:58:53.487Z,56.10
2022-08-21T16:01:22.621Z,56.50
2022-08-21T16:03:53.835Z,56.80
2022-08-21T16:06:37.975Z,56.40
2022-08-21T16:09:07.949Z,56.80
2022-08-21T16:11:34.920Z,56.60
2022-08-21T16:14:02.718Z,57.50
2022-08-21T16:16:30.807Z,56.80
2022-08-21T16:19:03.692Z,56.80
2022-08-21T16:21:30.548Z,56.70
2022-08-21T16:23:57.373Z,56.60
2022-08-21T16:26:24.664Z,56.10
2022-08-21T16:28:54.943Z,56.20
2022-08-21T16:31:24.494Z,56.30
2022-08-21T16:33:57.206Z,55.50
2022-08-21T16:36:28.266Z,55.30
2022-08-21T16:38:56.894Z,55.70
2022-08-21T16:41:27.320Z,55.90
2022-08-21T16:43:54.429Z,56.00
2022-08-21T16:46:22.626Z,56.10
2022-08-21T16:48:50.197Z,56.70
2022-08-21T16:51:18.058Z,55.80
2022-08-21T16:53:45.116Z,55.30
2022-08-21T16:56:14.109Z,54.70
2022-08-21T16:58:46.336Z,54.50
2022-08-21T17:01:15.353Z,54.20
2022-08-21T17:03:45.854Z,54.10
2022-08-21T17:06:14.673Z,53.80
2022-08-21T17:08:42.202Z,53.60
2022-08-21T17:11:17.072Z,53.80
2022-08-21T17:14:07.343Z,53.90
2022-08-21T17:16:34.685Z,54.00
2022-08-21T17:19:01.608Z,54.00
2022-08-21T17:21:28.641Z,53.70
2022-08-21T17:23:55.949Z,53.60
2022-08-21T17:26:23.875Z,53.90
2022-08-21T17:28:54.617Z,53.80
2022-08-21T17:31:22.470Z,53.80
2022-08-21T17:33:53.056Z,53.90
2022-08-21T17:36:22.753Z,53.80
2022-08-21T17:38:50.060Z,53.90
2022-08-21T17:41:18.285Z,54.10
2022-08-21T17:43:45.835Z,54.20
2022-08-21T17:46:18.926Z,54.40
2022-08-21T17:48:47.388Z,54.60
2022-08-21T17:51:15.145Z,54.30
2022-08-21T17:53:42.624Z,54.30
2022-08-21T17:56:09.730Z,54.30
2022-08-21T17:58:38.495Z,54.30
2022-08-21T18:01:06.162Z,54.30
2022-08-21T18:03:38.398Z,54.40
2022-08-21T18:06:06.773Z,54.30
2022-08-21T18:08:34.722Z,54.30
2022-08-21T18:11:01.868Z,54.50
2022-08-21T18:13:32.789Z,54.50
2022-08-21T18:16:01.078Z,54.60
2022-08-21T18:18:32.896Z,54.80
2022-08-21T18:20:59.855Z,54.70
2022-08-21T18:23:43.198Z,54.70
2022-08-21T18:26:14.576Z,54.80
2022-08-21T18:28:44.183Z,54.90
2022-08-21T18:31:12.930Z,55.10
2022-08-21T18:33:52.901Z,54.70
2022-08-21T18:36:26.770Z,54.70
2022-08-21T18:38:53.980Z,54.90
2022-08-21T18:41:21.939Z,55.00
2022-08-21T18:43:48.851Z,54.70
2022-08-21T18:46:16.279Z,55.00
2022-08-21T18:48:44.159Z,55.00
2022-08-21T18:51:12.346Z,55.00
2022-08-21T18:53:39.399Z,55.10
2022-08-21T18:56:07.457Z,55.20
2022-08-21T18:58:44.375Z,55.30
2022-08-21T19:01:11.664Z,55.40
2022-08-21T19:03:38.935Z,55.00
2022-08-21T19:06:06.078Z,55.10
2022-08-21T19:08:38.804Z,55.20
2022-08-21T19:11:06.594Z,55.60
2022-08-21T19:13:34.989Z,55.30
2022-08-21T19:16:05.222Z,55.60
2022-08-21T19:18:35.848Z,55.60
2022-08-21T19:21:03.298Z,55.70
2022-08-21T19:23:31.206Z,55.80
2022-08-21T19:26:05.766Z,55.70
2022-08-21T19:28:44.662Z,55.80
2022-08-21T19:31:24.493Z,55.80
2022-08-21T19:34:01.855Z,55.80
2022-08-21T19:36:30.091Z,55.90
2022-08-21T19:38:57.604Z,56.00
2022-08-21T19:41:28.460Z,56.10
2022-08-21T19:43:58.678Z,56.20
2022-08-21T19:46:38.139Z,56.20
2022-08-21T19:49:09.227Z,56.10
2022-08-21T19:51:37.673Z,56.30
2022-08-21T19:54:05.962Z,56.40
2022-08-21T19:56:38.260Z,56.30
2022-08-21T19:59:07.706Z,56.30
2022-08-21T20:01:36.747Z,56.30
2022-08-21T20:04:11.012Z,56.40
2022-08-21T20:06:45.399Z,56.30
2022-08-21T20:09:12.453Z,56.40
2022-08-21T20:11:45.893Z,56.40
2022-08-21T20:14:14.876Z,56.40
2022-08-21T20:16:42.235Z,56.50
2022-08-21T20:19:10.005Z,56.50
2022-08-21T20:21:43.495Z,56.50
2022-08-21T20:24:14.801Z,56.60
2022-08-21T20:26:48.718Z,56.70
2022-08-21T20:29:24.403Z,56.80
2022-08-21T20:32:02.573Z,56.70
2022-08-21T20:34:31.957Z,56.70
2022-08-21T20:36:58.889Z,56.70
2022-08-21T20:39:28.079Z,56.70
2022-08-21T20:41:55.852Z,56.70
2022-08-21T20:44:27.317Z,56.50
2022-08-21T20:46:55.004Z,56.40
2022-08-21T20:49:27.895Z,56.40
2022-08-21T20:51:57.277Z,56.20
2022-08-21T20:54:24.443Z,56.30
2022-08-21T20:57:16.803Z,56.30
2022-08-21T21:00:09.417Z,56.30
2022-08-21T21:03:07.027Z,56.50
2022-08-21T21:05:48.907Z,56.50
2022-08-21T21:08:32.600Z,56.20
2022-08-21T21:11:13.774Z,55.70
2022-08-21T21:13:52.666Z,55.70
2022-08-21T21:16:33.174Z,55.60
2022-08-21T21:19:04.612Z,55.30
2022-08-21T21:21:39.092Z,55.30
2022-08-21T21:24:19.391Z,55.70
2022-08-21T21:26:53.974Z,55.90
2022-08-21T21:29:34.866Z,56.00
2022-08-21T21:32:05.072Z,55.60
2022-08-21T21:34:39.453Z,56.00
2022-08-21T21:37:25.435Z,55.80
2022-08-21T21:40:31.906Z,55.50
2022-08-21T21:43:10.932Z,55.60
2022-08-21T21:45:42.828Z,55.80
2022-08-21T21:48:26.715Z,55.80
2022-08-21T21:51:00.783Z,55.60
2022-08-21T21:53:37.164Z,55.40
2022-08-21T21:56:12.861Z,55.50
2022-08-21T21:58:42.201Z,55.60
2022-08-21T22:01:31.545Z,55.50
2022-08-21T22:04:17.486Z,55.40
2022-08-21T22:06:53.071Z,55.50
2022-08-21T22:09:34.949Z,55.60
2022-08-21T22:12:23.418Z,55.70
2022-08-21T22:14:51.528Z,55.70
2022-08-21T22:17:46.457Z,55.60
2022-08-21T22:20:50.411Z,55.50
2022-08-21T22:23:22.005Z,55.40
2022-08-21T22:25:52.067Z,55.60
2022-08-21T22:28:26.052Z,55.70
2022-08-21T22:31:14.138Z,55.60
2022-08-21T22:33:41.663Z,55.90
2022-08-21T22:36:18.983Z,55.80
2022-08-21T22:38:46.714Z,55.60
2022-08-21T22:41:17.864Z,55.70
2022-08-21T22:44:05.889Z,55.80
2022-08-21T22:46:35.075Z,55.50
2022-08-21T22:49:12.042Z,55.70
2022-08-21T22:51:43.367Z,55.70
2022-08-21T22:54:22.880Z,55.70
2022-08-21T22:57:00.757Z,55.70
2022-08-21T22:59:31.763Z,55.50
2022-08-21T23:02:26.141Z,55.60
2022-08-21T23:04:58.177Z,55.50
2022-08-21T23:07:43.611Z,55.70
2022-08-21T23:10:29.942Z,55.50
2022-08-21T23:13:11.839Z,55.60
2022-08-21T23:15:59.408Z,55.50
2022-08-21T23:19:01.228Z,55.50
2022-08-21T23:21:43.332Z,55.50
2022-08-21T23:24:37.599Z,55.70
2022-08-21T23:27:22.633Z,55.60
2022-08-21T23:29:49.471Z,55.60
2022-08-21T23:32:44.667Z,55.70
2022-08-21T23:35:51.133Z,55.60
2022-08-21T23:38:43.607Z,55.50
2022-08-21T23:41:34.355Z,55.70
2022-08-21T23:44:24.725Z,55.50
2022-08-21T23:47:10.508Z,55.90
2022-08-21T23:49:54.003Z,55.60
2022-08-21T23:53:09.080Z,55.50
2022-08-21T23:55:55.403Z,55.50
2022-08-21T23:58:43.906Z,55.60
